createdAt,value
2023-03-22T05:23:26.398Z,44
2023-03-22T05:28:28.425Z,44
2023-03-22T05:33:35.289Z,45
2023-03-22T05:38:38.191Z,46
2023-03-22T05:43:41.049Z,47
2023-03-22T05:48:43.928Z,47
2023-03-22T05:53:46.085Z,47
2023-03-22T05:58:48.192Z,47
2023-03-22T06:03:50.471Z,47
2023-03-22T06:08:53.339Z,46
2023-03-22T06:13:57.838Z,46
2023-03-22T06:19:04.535Z,45
2023-03-22T06:24:06.865Z,45
2023-03-22T06:29:08.927Z,44
2023-03-22T06:34:12.638Z,44
2023-03-22T06:39:15.509Z,44
2023-03-22T06:44:18.373Z,44
2023-03-22T06:49:20.496Z,45
2023-03-22T06:54:22.784Z,45
2023-03-22T06:59:24.916Z,45
2023-03-22T07:04:33.290Z,45
2023-03-22T07:09:35.998Z,45
2023-03-22T07:14:38.844Z,46
2023-03-22T07:19:41.742Z,46
2023-03-22T07:24:53.995Z,46
2023-03-22T07:29:46.878Z,46
2023-03-22T07:34:49.051Z,47
2023-03-22T07:39:52.703Z,47
2023-03-22T07:44:56.359Z,47
2023-03-22T07:49:58.450Z,46
2023-03-22T07:55:02.114Z,46
2023-03-22T08:00:04.266Z,46
2023-03-22T08:05:06.406Z,46
2023-03-22T08:10:08.557Z,46
2023-03-22T08:15:15.314Z,46
2023-03-22T08:20:17.655Z,46
2023-03-22T08:25:21.416Z,46
2023-03-22T08:30:23.461Z,46
2023-03-22T08:35:26.587Z,46
2023-03-22T08:40:28.762Z,47
2023-03-22T08:45:31.537Z,47
2023-03-22T08:50:37.024Z,47
2023-03-22T08:55:39.389Z,47
2023-03-22T09:00:48.877Z,47
2023-03-22T09:05:45.804Z,46
2023-03-22T09:10:48.017Z,46
2023-03-22T09:15:50.864Z,46
2023-03-22T09:20:54.735Z,45
2023-03-22T09:26:03.019Z,45
2023-03-22T09:31:06.880Z,44
2023-03-22T09:36:09.665Z,44
2023-03-22T09:41:13.313Z,44
2023-03-22T09:46:17.013Z,43
2023-03-22T09:51:19.801Z,43
2023-03-22T09:56:21.942Z,43
2023-03-22T10:01:24.215Z,43
2023-03-22T10:06:28.195Z,42
2023-03-22T10:11:30.135Z,42
2023-03-22T10:16:32.332Z,42
2023-03-22T10:21:39.041Z,42
2023-03-22T10:26:41.378Z,42
2023-03-22T10:31:48.093Z,42
2023-03-22T10:36:50.346Z,42
2023-03-22T10:41:53.339Z,42
2023-03-22T10:46:55.779Z,42
2023-03-22T10:51:58.614Z,42
2023-03-22T10:57:00.758Z,43
2023-03-22T11:02:02.963Z,45
2023-03-22T11:07:08.351Z,47
2023-03-22T11:12:10.510Z,49
2023-03-22T11:17:13.527Z,50
2023-03-22T11:22:16.350Z,50
2023-03-22T11:27:19.268Z,49
2023-03-22T11:32:21.392Z,48
2023-03-22T11:37:25.832Z,48
2023-03-22T11:42:28.748Z,47
2023-03-22T11:47:31.022Z,47
2023-03-22T11:52:33.861Z,47
2023-03-22T11:57:36.806Z,46
2023-03-22T12:02:39.020Z,46
2023-03-22T12:07:41.030Z,46
2023-03-22T12:12:43.332Z,46
2023-03-22T12:17:45.607Z,46
2023-03-22T12:22:48.547Z,46
2023-03-22T12:27:52.164Z,46
2023-03-22T12:32:54.497Z,46
2023-03-22T12:37:58.764Z,46
2023-03-22T12:43:04.355Z,45
2023-03-22T12:48:06.500Z,45
2023-03-22T12:53:10.041Z,45
2023-03-22T12:58:12.181Z,46
2023-03-22T13:03:14.342Z,46
2023-03-22T13:08:16.559Z,47
2023-03-22T13:13:18.717Z,47
2023-03-22T13:18:26.883Z,48
2023-03-22T13:23:29.759Z,47
2023-03-22T13:28:32.089Z,47
2023-03-22T13:33:34.377Z,47
2023-03-22T13:38:42.958Z,47
2023-03-22T13:43:45.599Z,46
2023-03-22T13:48:48.385Z,46
2023-03-22T13:53:49.875Z,45
2023-03-22T13:58:52.032Z,45
2023-03-22T14:03:58.962Z,44
2023-03-22T14:09:01.808Z,44
2023-03-22T14:14:03.995Z,44
2023-03-22T14:19:06.113Z,44
2023-03-22T14:49:25.491Z,44
2023-03-22T14:54:32.216Z,44
2023-03-22T14:59:35.278Z,44
2023-03-22T15:04:37.368Z,44
2023-03-22T15:09:40.414Z,44
2023-03-22T15:14:43.447Z,44
2023-03-22T15:19:46.341Z,44
2023-03-22T15:24:48.631Z,45
2023-03-22T15:29:50.741Z,45
2023-03-22T15:34:53.736Z,45
2023-03-22T15:39:56.847Z,45
2023-03-22T15:45:01.212Z,45
2023-03-22T15:50:04.422Z,45
2023-03-22T15:55:06.478Z,44
2023-03-22T16:00:10.273Z,44
2023-03-22T16:05:12.350Z,44
2023-03-22T16:10:15.195Z,44
2023-03-22T16:15:18.195Z,44
2023-03-22T16:20:20.376Z,44
2023-03-22T16:25:23.950Z,45
2023-03-22T16:30:26.075Z,45
2023-03-22T16:35:29.082Z,46
2023-03-22T16:40:31.180Z,47
2023-03-22T16:45:36.545Z,48
2023-03-22T16:50:38.667Z,48
2023-03-22T16:55:41.053Z,48
2023-03-22T17:00:43.746Z,47
2023-03-22T17:05:46.761Z,47
2023-03-22T17:10:53.685Z,46
2023-03-22T17:15:55.767Z,45
2023-03-22T17:20:58.054Z,45
2023-03-22T17:26:01.767Z,45
2023-03-22T17:31:04.637Z,45
2023-03-22T17:36:06.914Z,44
2023-03-22T17:41:09.411Z,45
2023-03-22T17:46:50.283Z,45
2023-03-22T17:51:13.743Z,45
2023-03-22T17:56:44.929Z,45
2023-03-22T18:01:18.295Z,46
2023-03-22T18:06:21.352Z,46
2023-03-22T18:11:24.212Z,46
2023-03-22T18:16:26.532Z,46
2023-03-22T18:21:30.264Z,47
2023-03-22T18:26:43.175Z,47
2023-03-22T18:31:35.422Z,47
2023-03-22T18:36:38.536Z,48
2023-03-22T18:41:46.082Z,48
2023-03-22T18:46:42.747Z,48
2023-03-22T18:52:11.303Z,49
2023-03-22T18:56:47.096Z,49
2023-03-22T19:02:02.693Z,49
2023-03-22T19:06:54.355Z,49
2023-03-22T19:11:56.822Z,49
2023-03-22T19:16:58.943Z,49
2023-03-22T19:22:02.588Z,49
2023-03-22T19:27:16.080Z,49
2023-03-22T19:32:07.540Z,49
2023-03-22T19:37:13.050Z,49
2023-03-22T19:42:15.569Z,49
2023-03-22T19:47:17.262Z,49
2023-03-22T19:52:19.538Z,48
2023-03-22T19:57:22.248Z,48
2023-03-22T20:02:24.574Z,47
2023-03-22T20:07:32.730Z,46
2023-03-22T20:12:35.028Z,46
2023-03-22T20:17:37.226Z,45
2023-03-22T20:22:39.363Z,45
2023-03-22T20:27:41.614Z,45
2023-03-22T20:32:43.684Z,45
2023-03-22T20:37:45.939Z,45
2023-03-22T20:42:48.005Z,45
2023-03-22T20:47:50.120Z,45
2023-03-22T20:52:52.272Z,45
2023-03-22T20:57:55.290Z,45
2023-03-22T21:02:57.386Z,46
2023-03-22T21:08:00.286Z,46
2023-03-22T21:13:03.146Z,46
2023-03-22T21:18:05.288Z,46
2023-03-22T21:23:08.959Z,46
2023-03-22T21:28:14.275Z,46
2023-03-22T21:33:18.764Z,47
2023-03-22T21:38:22.704Z,47
2023-03-22T21:43:25.608Z,47
2023-03-22T21:48:27.762Z,47
2023-03-22T21:53:29.918Z,47
2023-03-22T21:58:33.518Z,47
2023-03-22T22:03:37.154Z,47
2023-03-22T22:08:40.281Z,47
2023-03-22T22:13:47.195Z,47
2023-03-22T22:18:49.254Z,47
2023-03-22T22:23:53.009Z,47
2023-03-22T22:28:55.069Z,47
2023-03-22T22:33:57.187Z,47
2023-03-22T22:38:59.345Z,46
2023-03-22T22:44:01.442Z,46
2023-03-22T22:49:03.675Z,45
2023-03-22T22:54:05.822Z,45
2023-03-22T22:59:08.082Z,45
2023-03-22T23:04:10.406Z,45
2023-03-22T23:09:13.878Z,46
2023-03-22T23:14:15.861Z,46
2023-03-22T23:19:18.914Z,46
2023-03-22T23:24:21.850Z,46
2023-03-22T23:29:25.435Z,46
2023-03-22T23:34:27.719Z,46
2023-03-22T23:39:29.810Z,46
2023-03-22T23:44:32.079Z,46
2023-03-22T23:49:34.147Z,46
